sensor_id;sensor_type;location;lat;lon;timestamp;pressure;altitude;pressure_sealevel;temperature;humidity
59877;BME280;45749;51.140;17.184;2022-08-03T00:00:43;100348.64;;;18.08;79.82
59877;BME280;45749;51.140;17.184;2022-08-03T00:03:09;100342.42;;;18.03;79.95
59877;BME280;45749;51.140;17.184;2022-08-03T00:05:35;100352.95;;;18.00;80.04
59877;BME280;45749;51.140;17.184;2022-08-03T00:08:02;100343.08;;;17.97;80.15
59877;BME280;45749;51.140;17.184;2022-08-03T00:10:28;100347.41;;;17.94;80.35
59877;BME280;45749;51.140;17.184;2022-08-03T00:12:54;100348.55;;;17.91;80.49
59877;BME280;45749;51.140;17.184;2022-08-03T00:15:20;100348.36;;;17.89;80.44
59877;BME280;45749;51.140;17.184;2022-08-03T00:17:46;100343.66;;;17.87;80.55
59877;BME280;45749;51.140;17.184;2022-08-03T00:20:12;100347.52;;;17.84;80.73
59877;BME280;45749;51.140;17.184;2022-08-03T00:22:38;100347.15;;;17.83;81.07
59877;BME280;45749;51.140;17.184;2022-08-03T00:25:05;100347.97;;;17.79;80.81
59877;BME280;45749;51.140;17.184;2022-08-03T00:27:31;100346.08;;;17.76;81.13
59877;BME280;45749;51.140;17.184;2022-08-03T00:29:58;100347.22;;;17.73;81.30
59877;BME280;45749;51.140;17.184;2022-08-03T00:32:24;100350.69;;;17.66;81.34
59877;BME280;45749;51.140;17.184;2022-08-03T00:34:50;100347.50;;;17.62;81.49
59877;BME280;45749;51.140;17.184;2022-08-03T00:37:16;100345.83;;;17.61;81.65
59877;BME280;45749;51.140;17.184;2022-08-03T00:39:42;100351.48;;;17.58;81.74
59877;BME280;45749;51.140;17.184;2022-08-03T00:42:10;100353.43;;;17.52;81.96
59877;BME280;45749;51.140;17.184;2022-08-03T00:44:41;100348.07;;;17.48;82.34
59877;BME280;45749;51.140;17.184;2022-08-03T00:47:08;100349.41;;;17.48;82.72
59877;BME280;45749;51.140;17.184;2022-08-03T00:49:38;100346.23;;;17.48;82.70
59877;BME280;45749;51.140;17.184;2022-08-03T00:52:06;100352.08;;;17.48;82.64
59877;BME280;45749;51.140;17.184;2022-08-03T00:54:37;100352.88;;;17.44;82.58
59877;BME280;45749;51.140;17.184;2022-08-03T00:57:04;100349.69;;;17.41;82.60
59877;BME280;45749;51.140;17.184;2022-08-03T00:59:31;100352.66;;;17.38;82.75
59877;BME280;45749;51.140;17.184;2022-08-03T01:01:57;100346.97;;;17.37;82.66
59877;BME280;45749;51.140;17.184;2022-08-03T01:04:23;100347.47;;;17.36;82.77
59877;BME280;45749;51.140;17.184;2022-08-03T01:06:55;100349.78;;;17.31;82.79
59877;BME280;45749;51.140;17.184;2022-08-03T01:15:13;100346.70;;;17.22;83.16
59877;BME280;45749;51.140;17.184;2022-08-03T01:18:05;100342.00;;;17.20;83.27
59877;BME280;45749;51.140;17.184;2022-08-03T01:20:34;100348.16;;;17.20;83.34
59877;BME280;45749;51.140;17.184;2022-08-03T01:26:23;100342.78;;;17.12;83.66
59877;BME280;45749;51.140;17.184;2022-08-03T01:32:02;100340.39;;;17.05;83.98
59877;BME280;45749;51.140;17.184;2022-08-03T01:34:41;100335.99;;;17.00;84.21
59877;BME280;45749;51.140;17.184;2022-08-03T01:37:10;100336.30;;;16.97;84.49
59877;BME280;45749;51.140;17.184;2022-08-03T01:39:38;100332.97;;;16.95;84.69
59877;BME280;45749;51.140;17.184;2022-08-03T01:42:07;100331.94;;;16.92;84.77
59877;BME280;45749;51.140;17.184;2022-08-03T01:44:37;100339.06;;;16.91;84.73
59877;BME280;45749;51.140;17.184;2022-08-03T01:47:06;100336.23;;;16.88;84.89
59877;BME280;45749;51.140;17.184;2022-08-03T01:49:38;100333.20;;;16.87;84.99
59877;BME280;45749;51.140;17.184;2022-08-03T01:52:08;100331.54;;;16.86;85.09
59877;BME280;45749;51.140;17.184;2022-08-03T01:54:43;100326.20;;;16.86;85.19
59877;BME280;45749;51.140;17.184;2022-08-03T01:57:08;100328.17;;;16.84;85.35
59877;BME280;45749;51.140;17.184;2022-08-03T01:59:36;100326.52;;;16.83;85.32
59877;BME280;45749;51.140;17.184;2022-08-03T02:02:04;100328.34;;;16.83;85.34
59877;BME280;45749;51.140;17.184;2022-08-03T02:04:31;100323.02;;;16.83;85.14
59877;BME280;45749;51.140;17.184;2022-08-03T02:07:00;100324.67;;;16.84;85.36
59877;BME280;45749;51.140;17.184;2022-08-03T02:09:28;100316.85;;;16.82;85.31
59877;BME280;45749;51.140;17.184;2022-08-03T02:11:56;100320.84;;;16.82;85.24
59877;BME280;45749;51.140;17.184;2022-08-03T02:14:23;100320.84;;;16.82;85.32
59877;BME280;45749;51.140;17.184;2022-08-03T02:16:51;100308.69;;;16.84;85.11
59877;BME280;45749;51.140;17.184;2022-08-03T02:19:18;100311.22;;;16.85;84.97
59877;BME280;45749;51.140;17.184;2022-08-03T02:21:46;100309.52;;;16.84;85.21
59877;BME280;45749;51.140;17.184;2022-08-03T02:24:13;100302.86;;;16.84;85.37
59877;BME280;45749;51.140;17.184;2022-08-03T02:26:40;100311.85;;;16.83;85.31
59877;BME280;45749;51.140;17.184;2022-08-03T02:29:14;100311.19;;;16.81;85.40
59877;BME280;45749;51.140;17.184;2022-08-03T02:31:42;100309.86;;;16.81;85.57
59877;BME280;45749;51.140;17.184;2022-08-03T02:34:12;100308.98;;;16.81;85.88
59877;BME280;45749;51.140;17.184;2022-08-03T02:36:41;100313.48;;;16.80;85.82
59877;BME280;45749;51.140;17.184;2022-08-03T02:39:10;100314.82;;;16.80;85.77
59877;BME280;45749;51.140;17.184;2022-08-03T02:41:44;100308.16;;;16.80;85.75
59877;BME280;45749;51.140;17.184;2022-08-03T02:44:12;100308.66;;;16.80;85.80
59877;BME280;45749;51.140;17.184;2022-08-03T02:46:42;100307.83;;;16.79;86.12
59877;BME280;45749;51.140;17.184;2022-08-03T02:49:12;100302.50;;;16.79;86.41
59877;BME280;45749;51.140;17.184;2022-08-03T02:51:44;100310.98;;;16.79;86.31
59877;BME280;45749;51.140;17.184;2022-08-03T02:54:14;100310.98;;;16.79;86.42
59877;BME280;45749;51.140;17.184;2022-08-03T02:56:44;100314.82;;;16.80;86.58
59877;BME280;45749;51.140;17.184;2022-08-03T02:59:11;100316.16;;;16.80;86.51
59877;BME280;45749;51.140;17.184;2022-08-03T03:01:38;100323.52;;;16.82;86.46
59877;BME280;45749;51.140;17.184;2022-08-03T03:04:05;100314.69;;;16.82;86.38
59877;BME280;45749;51.140;17.184;2022-08-03T03:06:32;100318.02;;;16.84;86.35
59877;BME280;45749;51.140;17.184;2022-08-03T03:08:59;100321.87;;;16.85;86.53
59877;BME280;45749;51.140;17.184;2022-08-03T03:11:26;100323.55;;;16.86;86.64
59877;BME280;45749;51.140;17.184;2022-08-03T03:13:55;100321.71;;;16.87;86.83
59877;BME280;45749;51.140;17.184;2022-08-03T03:16:22;100326.41;;;16.89;86.69
59877;BME280;45749;51.140;17.184;2022-08-03T03:18:51;100320.58;;;16.90;86.86
59877;BME280;45749;51.140;17.184;2022-08-03T03:21:19;100320.91;;;16.91;86.85
59877;BME280;45749;51.140;17.184;2022-08-03T03:23:47;100316.91;;;16.91;86.88
59877;BME280;45749;51.140;17.184;2022-08-03T03:26:14;100324.27;;;16.93;87.04
59877;BME280;45749;51.140;17.184;2022-08-03T03:28:41;100316.28;;;16.93;87.15
59877;BME280;45749;51.140;17.184;2022-08-03T03:31:08;100320.61;;;16.94;86.92
59877;BME280;45749;51.140;17.184;2022-08-03T03:33:34;100321.44;;;16.94;86.87
59877;BME280;45749;51.140;17.184;2022-08-03T03:36:02;100324.60;;;16.94;86.95
59877;BME280;45749;51.140;17.184;2022-08-03T03:38:29;100322.77;;;16.94;86.81
59877;BME280;45749;51.140;17.184;2022-08-03T03:40:57;100328.97;;;16.95;86.97
59877;BME280;45749;51.140;17.184;2022-08-03T03:43:23;100328.97;;;16.95;87.38
59877;BME280;45749;51.140;17.184;2022-08-03T03:45:50;100329.63;;;16.97;87.43
59877;BME280;45749;51.140;17.184;2022-08-03T03:48:18;100327.16;;;16.99;87.77
59877;BME280;45749;51.140;17.184;2022-08-03T03:50:44;100328.00;;;17.00;87.32
59877;BME280;45749;51.140;17.184;2022-08-03T03:53:12;100320.33;;;17.01;87.51
59877;BME280;45749;51.140;17.184;2022-08-03T03:55:39;100328.70;;;17.02;87.71
59877;BME280;45749;51.140;17.184;2022-08-03T03:58:06;100327.70;;;17.03;87.53
59877;BME280;45749;51.140;17.184;2022-08-03T04:00:32;100333.72;;;17.05;87.40
59877;BME280;45749;51.140;17.184;2022-08-03T04:02:59;100328.86;;;17.04;87.53
59877;BME280;45749;51.140;17.184;2022-08-03T04:05:25;100324.39;;;17.05;87.45
59877;BME280;45749;51.140;17.184;2022-08-03T04:08:12;100329.55;;;17.06;87.54
59877;BME280;45749;51.140;17.184;2022-08-03T04:13:57;100328.55;;;17.07;87.98
59877;BME280;45749;51.140;17.184;2022-08-03T04:16:28;100328.92;;;17.08;88.05
59877;BME280;45749;51.140;17.184;2022-08-03T04:19:00;100334.75;;;17.08;87.82
59877;BME280;45749;51.140;17.184;2022-08-03T04:21:29;100333.42;;;17.08;87.90
59877;BME280;45749;51.140;17.184;2022-08-03T04:23:59;100331.92;;;17.09;88.09
59877;BME280;45749;51.140;17.184;2022-08-03T04:26:29;100335.08;;;17.09;88.25
59877;BME280;45749;51.140;17.184;2022-08-03T04:28:57;100336.75;;;17.10;88.22
59877;BME280;45749;51.140;17.184;2022-08-03T04:31:26;100338.58;;;17.09;88.21
59877;BME280;45749;51.140;17.184;2022-08-03T04:33:53;100331.92;;;17.09;88.31
59877;BME280;45749;51.140;17.184;2022-08-03T04:36:25;100334.91;;;17.10;88.11
59877;BME280;45749;51.140;17.184;2022-08-03T04:39:07;100336.25;;;17.10;88.46
59877;BME280;45749;51.140;17.184;2022-08-03T04:41:35;100342.08;;;17.10;88.29
59877;BME280;45749;51.140;17.184;2022-08-03T04:44:01;100340.61;;;17.11;88.55
59877;BME280;45749;51.140;17.184;2022-08-03T04:46:36;100341.44;;;17.12;88.53
59877;BME280;45749;51.140;17.184;2022-08-03T04:49:04;100347.94;;;17.14;88.46
59877;BME280;45749;51.140;17.184;2022-08-03T04:51:31;100346.11;;;17.14;88.60
59877;BME280;45749;51.140;17.184;2022-08-03T04:53:59;100349.33;;;17.18;88.58
59877;BME280;45749;51.140;17.184;2022-08-03T04:56:26;100344.83;;;17.18;88.40
59877;BME280;45749;51.140;17.184;2022-08-03T04:58:52;100342.00;;;17.20;88.59
59877;BME280;45749;51.140;17.184;2022-08-03T05:01:18;100350.33;;;17.21;88.65
59877;BME280;45749;51.140;17.184;2022-08-03T05:03:47;100344.86;;;17.22;88.68
59877;BME280;45749;51.140;17.184;2022-08-03T05:06:13;100342.89;;;17.24;88.97
59877;BME280;45749;51.140;17.184;2022-08-03T05:08:39;100342.55;;;17.27;88.74
59877;BME280;45749;51.140;17.184;2022-08-03T05:11:05;100338.91;;;17.28;88.65
59877;BME280;45749;51.140;17.184;2022-08-03T05:13:32;100341.28;;;17.31;88.71
59877;BME280;45749;51.140;17.184;2022-08-03T05:15:58;100340.47;;;17.35;88.84
59877;BME280;45749;51.140;17.184;2022-08-03T05:18:23;100342.97;;;17.37;88.77
59877;BME280;45749;51.140;17.184;2022-08-03T05:20:49;100340.83;;;17.40;88.84
59877;BME280;45749;51.140;17.184;2022-08-03T05:23:15;100348.36;;;17.41;88.62
59877;BME280;45749;51.140;17.184;2022-08-03T05:25:41;100336.19;;;17.42;88.74
59877;BME280;45749;51.140;17.184;2022-08-03T05:28:07;100343.55;;;17.44;88.69
59877;BME280;45749;51.140;17.184;2022-08-03T05:30:33;100338.04;;;17.46;88.78
59877;BME280;45749;51.140;17.184;2022-08-03T05:33:00;100339.06;;;17.49;88.65
59877;BME280;45749;51.140;17.184;2022-08-03T05:35:27;100341.09;;;17.51;88.81
59877;BME280;45749;51.140;17.184;2022-08-03T05:37:53;100344.78;;;17.54;88.70
59877;BME280;45749;51.140;17.184;2022-08-03T05:40:19;100352.29;;;17.54;88.59
59877;BME280;45749;51.140;17.184;2022-08-03T05:42:45;100353.45;;;17.56;88.63
59877;BME280;45749;51.140;17.184;2022-08-03T05:45:12;100350.14;;;17.58;88.63
59877;BME280;45749;51.140;17.184;2022-08-03T05:47:43;100356.14;;;17.60;88.68
59877;BME280;45749;51.140;17.184;2022-08-03T05:50:10;100359.20;;;17.65;88.61
59877;BME280;45749;51.140;17.184;2022-08-03T05:52:39;100360.55;;;17.69;88.78
59877;BME280;45749;51.140;17.184;2022-08-03T05:55:06;100352.42;;;17.75;88.92
59877;BME280;45749;51.140;17.184;2022-08-03T05:57:33;100356.33;;;17.80;89.19
59877;BME280;45749;51.140;17.184;2022-08-03T06:00:02;100359.02;;;17.85;89.12
59877;BME280;45749;51.140;17.184;2022-08-03T06:02:29;100355.86;;;17.89;89.06
59877;BME280;45749;51.140;17.184;2022-08-03T06:04:55;100365.58;;;17.94;89.13
59877;BME280;45749;51.140;17.184;2022-08-03T06:07:22;100355.75;;;17.99;89.26
59877;BME280;45749;51.140;17.184;2022-08-03T06:09:47;100356.96;;;18.04;89.38
59877;BME280;45749;51.140;17.184;2022-08-03T06:12:13;100358.17;;;18.10;89.45
59877;BME280;45749;51.140;17.184;2022-08-03T06:14:40;100358.37;;;18.17;89.64
59877;BME280;45749;51.140;17.184;2022-08-03T06:17:06;100358.56;;;18.23;89.66
59877;BME280;45749;51.140;17.184;2022-08-03T06:19:32;100367.28;;;18.30;89.76
59877;BME280;45749;51.140;17.184;2022-08-03T06:21:58;100362.13;;;18.36;89.52
59877;BME280;45749;51.140;17.184;2022-08-03T06:24:24;100361.31;;;18.44;89.49
59877;BME280;45749;51.140;17.184;2022-08-03T06:26:50;100361.17;;;18.49;89.91
59877;BME280;45749;51.140;17.184;2022-08-03T06:29:16;100355.01;;;18.57;89.81
59877;BME280;45749;51.140;17.184;2022-08-03T06:31:42;100359.35;;;18.62;89.89
59877;BME280;45749;51.140;17.184;2022-08-03T06:34:08;100361.55;;;18.71;89.21
59877;BME280;45749;51.140;17.184;2022-08-03T06:36:34;100368.45;;;18.82;88.89
59877;BME280;45749;51.140;17.184;2022-08-03T06:39:00;100365.64;;;18.91;88.56
59877;BME280;45749;51.140;17.184;2022-08-03T06:41:26;100360.14;;;19.01;88.12
59877;BME280;45749;51.140;17.184;2022-08-03T06:43:53;100367.17;;;19.10;88.31
59877;BME280;45749;51.140;17.184;2022-08-03T06:46:19;100370.02;;;19.17;88.34
59877;BME280;45749;51.140;17.184;2022-08-03T06:48:53;100367.02;;;19.24;88.63
59877;BME280;45749;51.140;17.184;2022-08-03T06:51:25;100369.20;;;19.33;88.46
59877;BME280;45749;51.140;17.184;2022-08-03T06:53:51;100365.17;;;19.41;88.93
59877;BME280;45749;51.140;17.184;2022-08-03T06:56:17;100364.86;;;19.48;88.43
59877;BME280;45749;51.140;17.184;2022-08-03T06:58:45;100365.52;;;19.58;88.28
59877;BME280;45749;51.140;17.184;2022-08-03T07:01:12;100368.53;;;19.67;88.11
59877;BME280;45749;51.140;17.184;2022-08-03T07:03:38;100372.87;;;19.77;88.38
59877;BME280;45749;51.140;17.184;2022-08-03T07:06:05;100360.64;;;19.86;87.83
59877;BME280;45749;51.140;17.184;2022-08-03T07:08:32;100366.13;;;19.97;87.37
59877;BME280;45749;51.140;17.184;2022-08-03T07:10:58;100362.09;;;20.09;87.06
59877;BME280;45749;51.140;17.184;2022-08-03T07:13:24;100360.52;;;20.23;87.03
59877;BME280;45749;51.140;17.184;2022-08-03T07:15:50;100361.31;;;20.36;86.95
59877;BME280;45749;51.140;17.184;2022-08-03T07:18:16;100360.12;;;20.47;85.70
59877;BME280;45749;51.140;17.184;2022-08-03T07:20:42;100360.89;;;20.59;85.40
59877;BME280;45749;51.140;17.184;2022-08-03T07:23:08;100366.91;;;20.70;85.36
59877;BME280;45749;51.140;17.184;2022-08-03T07:25:34;100364.12;;;20.82;85.19
59877;BME280;45749;51.140;17.184;2022-08-03T07:28:00;100366.93;;;20.93;85.44
59877;BME280;45749;51.140;17.184;2022-08-03T07:30:26;100368.52;;;21.02;83.93
59877;BME280;45749;51.140;17.184;2022-08-03T07:32:52;100364.27;;;21.12;83.82
59877;BME280;45749;51.140;17.184;2022-08-03T07:35:18;100360.83;;;21.22;83.37
59877;BME280;45749;51.140;17.184;2022-08-03T07:37:44;100357.07;;;21.31;82.73
59877;BME280;45749;51.140;17.184;2022-08-03T07:40:10;100359.86;;;21.42;83.04
59877;BME280;45749;51.140;17.184;2022-08-03T07:42:36;100364.30;;;21.53;82.43
59877;BME280;45749;51.140;17.184;2022-08-03T07:45:02;100363.48;;;21.68;82.50
59877;BME280;45749;51.140;17.184;2022-08-03T07:47:30;100361.71;;;21.79;81.79
59877;BME280;45749;51.140;17.184;2022-08-03T07:49:56;100364.30;;;21.87;81.86
59877;BME280;45749;51.140;17.184;2022-08-03T07:52:22;100356.17;;;21.95;80.68
59877;BME280;45749;51.140;17.184;2022-08-03T07:55:07;100362.36;;;22.11;81.18
59877;BME280;45749;51.140;17.184;2022-08-03T07:57:35;100358.36;;;22.26;80.23
59877;BME280;45749;51.140;17.184;2022-08-03T08:00:04;100360.70;;;22.39;80.41
59877;BME280;45749;51.140;17.184;2022-08-03T08:02:33;100356.32;;;22.53;79.57
59877;BME280;45749;51.140;17.184;2022-08-03T08:04:59;100362.82;;;22.69;79.13
59877;BME280;45749;51.140;17.184;2022-08-03T08:07:25;100359.66;;;22.81;78.97
59877;BME280;45749;51.140;17.184;2022-08-03T08:09:51;100363.28;;;22.99;78.32
59877;BME280;45749;51.140;17.184;2022-08-03T08:12:17;100366.93;;;23.12;78.24
59877;BME280;45749;51.140;17.184;2022-08-03T08:14:43;100360.70;;;23.23;77.59
59877;BME280;45749;51.140;17.184;2022-08-03T08:17:12;100365.45;;;23.31;77.89
59877;BME280;45749;51.140;17.184;2022-08-03T08:19:41;100365.27;;;23.44;75.56
59877;BME280;45749;51.140;17.184;2022-08-03T08:22:07;100363.89;;;23.54;77.02
59877;BME280;45749;51.140;17.184;2022-08-03T08:24:33;100362.86;;;23.66;76.09
59877;BME280;45749;51.140;17.184;2022-08-03T08:26:59;100360.03;;;23.74;76.05
59877;BME280;45749;51.140;17.184;2022-08-03T08:29:25;100359.59;;;23.88;75.68
59877;BME280;45749;51.140;17.184;2022-08-03T08:31:52;100359.98;;;23.96;75.09
59877;BME280;45749;51.140;17.184;2022-08-03T08:34:18;100359.28;;;24.04;73.67
59877;BME280;45749;51.140;17.184;2022-08-03T08:36:44;100358.53;;;24.17;74.49
59877;BME280;45749;51.140;17.184;2022-08-03T08:39:10;100360.34;;;24.27;73.71
59877;BME280;45749;51.140;17.184;2022-08-03T08:41:36;100368.86;;;24.42;70.92
59877;BME280;45749;51.140;17.184;2022-08-03T08:44:03;100362.36;;;24.53;72.70
59877;BME280;45749;51.140;17.184;2022-08-03T08:46:31;100361.05;;;24.67;71.89
59877;BME280;45749;51.140;17.184;2022-08-03T08:48:58;100356.92;;;24.77;70.49
59877;BME280;45749;51.140;17.184;2022-08-03T08:51:28;100358.11;;;24.86;70.47
59877;BME280;45749;51.140;17.184;2022-08-03T08:53:56;100353.55;;;24.93;70.25
59877;BME280;45749;51.140;17.184;2022-08-03T08:56:24;100352.84;;;25.01;69.14
59877;BME280;45749;51.140;17.184;2022-08-03T08:58:53;100360.36;;;25.13;68.45
59877;BME280;45749;51.140;17.184;2022-08-03T09:01:22;100359.42;;;25.16;69.37
59877;BME280;45749;51.140;17.184;2022-08-03T09:03:48;100354.97;;;25.26;69.69
59877;BME280;45749;51.140;17.184;2022-08-03T09:06:15;100358.50;;;25.40;68.09
59877;BME280;45749;51.140;17.184;2022-08-03T09:08:41;100362.47;;;25.50;68.52
59877;BME280;45749;51.140;17.184;2022-08-03T09:11:07;100358.00;;;25.60;67.36
59877;BME280;45749;51.140;17.184;2022-08-03T09:13:34;100350.19;;;25.68;67.28
59877;BME280;45749;51.140;17.184;2022-08-03T09:16:17;100355.89;;;25.76;67.07
59877;BME280;45749;51.140;17.184;2022-08-03T09:18:51;100361.00;;;25.88;66.61
59877;BME280;45749;51.140;17.184;2022-08-03T09:23:51;100358.02;;;26.09;66.00
59877;BME280;45749;51.140;17.184;2022-08-03T09:26:29;100347.30;;;26.18;63.85
59877;BME280;45749;51.140;17.184;2022-08-03T09:29:01;100343.02;;;26.27;63.67
59877;BME280;45749;51.140;17.184;2022-08-03T09:31:40;100345.17;;;26.34;62.47
59877;BME280;45749;51.140;17.184;2022-08-03T09:34:15;100340.55;;;26.41;64.97
59877;BME280;45749;51.140;17.184;2022-08-03T09:36:44;100332.64;;;26.46;65.01
59877;BME280;45749;51.140;17.184;2022-08-03T09:39:24;100340.82;;;26.55;62.69
59877;BME280;45749;51.140;17.184;2022-08-03T09:42:23;100342.23;;;26.64;62.93
59877;BME280;45749;51.140;17.184;2022-08-03T09:44:42;100334.80;;;26.76;63.62
59877;BME280;45749;51.140;17.184;2022-08-03T09:47:12;100336.51;;;26.86;63.33
59877;BME280;45749;51.140;17.184;2022-08-03T09:49:41;100335.06;;;26.99;62.26
59877;BME280;45749;51.140;17.184;2022-08-03T09:52:13;100330.12;;;27.05;63.21
59877;BME280;45749;51.140;17.184;2022-08-03T09:54:43;100332.27;;;27.12;61.93
59877;BME280;45749;51.140;17.184;2022-08-03T09:57:21;100338.43;;;27.26;60.55
59877;BME280;45749;51.140;17.184;2022-08-03T09:59:48;100328.36;;;27.33;60.08
59877;BME280;45749;51.140;17.184;2022-08-03T10:02:23;100333.58;;;27.44;59.19
59877;BME280;45749;51.140;17.184;2022-08-03T10:04:50;100327.28;;;27.50;61.66
59877;BME280;45749;51.140;17.184;2022-08-03T10:07:19;100326.54;;;27.52;60.84
59877;BME280;45749;51.140;17.184;2022-08-03T10:10:00;100324.97;;;27.63;60.64
59877;BME280;45749;51.140;17.184;2022-08-03T10:12:27;100325.08;;;27.75;61.12
59877;BME280;45749;51.140;17.184;2022-08-03T10:14:54;100313.13;;;27.82;59.85
59877;BME280;45749;51.140;17.184;2022-08-03T10:17:21;100320.66;;;27.90;57.61
59877;BME280;45749;51.140;17.184;2022-08-03T10:19:48;100322.72;;;27.94;57.94
59877;BME280;45749;51.140;17.184;2022-08-03T10:22:23;100319.31;;;27.99;57.42
59877;BME280;45749;51.140;17.184;2022-08-03T10:25:09;100317.59;;;28.04;57.04
59877;BME280;45749;51.140;17.184;2022-08-03T10:27:39;100314.80;;;28.11;57.12
59877;BME280;45749;51.140;17.184;2022-08-03T10:30:08;100313.45;;;28.20;56.15
59877;BME280;45749;51.140;17.184;2022-08-03T10:32:45;100312.22;;;28.25;57.23
59877;BME280;45749;51.140;17.184;2022-08-03T10:35:15;100301.81;;;28.32;56.75
59877;BME280;45749;51.140;17.184;2022-08-03T10:37:45;100307.08;;;28.36;57.37
59877;BME280;45749;51.140;17.184;2022-08-03T10:40:15;100306.27;;;28.44;56.13
59877;BME280;45749;51.140;17.184;2022-08-03T10:42:46;100308.89;;;28.51;54.77
59877;BME280;45749;51.140;17.184;2022-08-03T10:45:19;100310.38;;;28.56;53.92
59877;BME280;45749;51.140;17.184;2022-08-03T10:47:47;100306.91;;;28.58;54.65
59877;BME280;45749;51.140;17.184;2022-08-03T10:50:14;100305.84;;;28.59;54.84
59877;BME280;45749;51.140;17.184;2022-08-03T10:53:01;100300.32;;;28.66;54.60
59877;BME280;45749;51.140;17.184;2022-08-03T10:55:35;100306.05;;;28.76;53.98
59877;BME280;45749;51.140;17.184;2022-08-03T10:58:51;100304.95;;;28.86;53.34
59877;BME280;45749;51.140;17.184;2022-08-03T11:01:19;100314.11;;;28.94;54.06
59877;BME280;45749;51.140;17.184;2022-08-03T11:06:43;100312.58;;;28.98;52.38
59877;BME280;45749;51.140;17.184;2022-08-03T11:09:13;100308.07;;;29.02;54.34
59877;BME280;45749;51.140;17.184;2022-08-03T11:11:44;100307.39;;;29.06;51.77
59877;BME280;45749;51.140;17.184;2022-08-03T11:14:19;100307.50;;;29.11;52.73
59877;BME280;45749;51.140;17.184;2022-08-03T11:16:49;100304.09;;;29.16;53.55
59877;BME280;45749;51.140;17.184;2022-08-03T11:19:20;100297.59;;;29.17;51.57
59877;BME280;45749;51.140;17.184;2022-08-03T11:21:53;100296.70;;;29.14;51.90
59877;BME280;45749;51.140;17.184;2022-08-03T11:30:10;100295.56;;;28.91;51.21
59877;BME280;45749;51.140;17.184;2022-08-03T11:35:25;100291.70;;;28.99;53.26
59877;BME280;45749;51.140;17.184;2022-08-03T11:38:05;100289.66;;;29.04;51.35
59877;BME280;45749;51.140;17.184;2022-08-03T11:40:35;100290.02;;;29.07;50.88
59877;BME280;45749;51.140;17.184;2022-08-03T11:43:06;100290.38;;;29.11;49.72
59877;BME280;45749;51.140;17.184;2022-08-03T11:45:36;100289.45;;;29.17;49.84
59877;BME280;45749;51.140;17.184;2022-08-03T11:48:15;100290.27;;;29.17;51.20
59877;BME280;45749;51.140;17.184;2022-08-03T11:50:42;100287.08;;;29.20;50.66
59877;BME280;45749;51.140;17.184;2022-08-03T11:53:13;100282.83;;;29.25;51.75
59877;BME280;45749;51.140;17.184;2022-08-03T11:55:44;100281.06;;;29.30;52.14
59877;BME280;45749;51.140;17.184;2022-08-03T11:58:21;100279.52;;;29.34;49.82
59877;BME280;45749;51.140;17.184;2022-08-03T12:00:49;100268.97;;;29.35;48.90
59877;BME280;45749;51.140;17.184;2022-08-03T12:03:21;100272.33;;;29.40;49.62
59877;BME280;45749;51.140;17.184;2022-08-03T12:05:50;100276.34;;;29.49;49.49
59877;BME280;45749;51.140;17.184;2022-08-03T12:08:28;100272.08;;;29.53;50.57
59877;BME280;45749;51.140;17.184;2022-08-03T12:10:55;100270.63;;;29.60;50.69
59877;BME280;45749;51.140;17.184;2022-08-03T12:13:23;100267.50;;;29.65;49.49
59877;BME280;45749;51.140;17.184;2022-08-03T12:15:55;100268.61;;;29.67;48.50
59877;BME280;45749;51.140;17.184;2022-08-03T12:18:23;100269.20;;;29.69;48.55
59877;BME280;45749;51.140;17.184;2022-08-03T12:20:52;100272.21;;;29.70;47.26
59877;BME280;45749;51.140;17.184;2022-08-03T12:23:20;100266.30;;;29.73;48.23
59877;BME280;45749;51.140;17.184;2022-08-03T12:25:46;100264.94;;;29.73;48.25
59877;BME280;45749;51.140;17.184;2022-08-03T12:28:18;100257.66;;;29.76;48.06
59877;BME280;45749;51.140;17.184;2022-08-03T12:30:49;100251.21;;;29.80;48.74
59877;BME280;45749;51.140;17.184;2022-08-03T12:33:19;100256.65;;;29.80;48.10
59877;BME280;45749;51.140;17.184;2022-08-03T12:36:08;100252.62;;;29.82;46.85
59877;BME280;45749;51.140;17.184;2022-08-03T12:38:37;100242.58;;;29.83;48.89
59877;BME280;45749;51.140;17.184;2022-08-03T12:41:10;100251.49;;;29.81;47.43
59877;BME280;45749;51.140;17.184;2022-08-03T12:43:36;100250.98;;;29.81;47.47
59877;BME280;45749;51.140;17.184;2022-08-03T12:46:17;100250.98;;;29.81;48.17
59877;BME280;45749;51.140;17.184;2022-08-03T12:49:15;100246.91;;;29.81;47.60
59877;BME280;45749;51.140;17.184;2022-08-03T12:51:58;100242.63;;;29.85;47.05
59877;BME280;45749;51.140;17.184;2022-08-03T12:54:22;100241.02;;;29.87;46.75
59877;BME280;45749;51.140;17.184;2022-08-03T12:57:01;100245.64;;;29.86;43.82
59877;BME280;45749;51.140;17.184;2022-08-03T12:59:34;100239.59;;;29.84;44.57
59877;BME280;45749;51.140;17.184;2022-08-03T13:02:02;100242.03;;;29.83;43.58
59877;BME280;45749;51.140;17.184;2022-08-03T13:04:33;100237.67;;;29.82;45.43
59877;BME280;45749;51.140;17.184;2022-08-03T13:07:02;100239.03;;;29.82;46.31
59877;BME280;45749;51.140;17.184;2022-08-03T13:09:42;100237.73;;;29.85;44.44
59877;BME280;45749;51.140;17.184;2022-08-03T13:12:14;100238.84;;;29.86;44.31
59877;BME280;45749;51.140;17.184;2022-08-03T13:14:43;100238.84;;;29.86;45.48
59877;BME280;45749;51.140;17.184;2022-08-03T13:17:11;100238.30;;;29.87;45.63
59877;BME280;45749;51.140;17.184;2022-08-03T13:19:39;100244.34;;;29.89;45.58